Oaks, Oklahoma
Current Conditions -  °F | °C
As of 6:55 PM on Tuesday 21 Oct 2014 (Local Time) from KTQH Reporting Station
Broken Clouds Broken Clouds  
Wind Chill: 21°   Ceiling: 4900
Heat Index: 21°   Visibility: 10mi
Dew Point: 17°   Wind: 0mph
Humidity: 78%   Direction: NA
Pressure: 30.05"   Gusts: NA
Location:  36.17°N, 94.85°W
Report Text: KTQH 212355Z AUTO 00000KT 10SM SCT040 BKN049 21/17 A3005 RMK AO2
Loading
Personal Weather Stations






























Interactive Weather Map
Tropical Storm Tracking
New forecast layout! Learn more

10-Day Weather Forecast

Advertisements
Track Severe Weather on mobile